^^
Station Historical Data
Daily Summary for March 17, 2017 Units:  Metric    English   Both
« Previous Day
Next Day »
Daily Weekly Monthly Yearly Custom
  High: Low: Average:
Temperature: 37.4 °C 18.1 °C 27.3 °C
Dew Point: 10.6 °C 2 °C 6.7 °C
Humidity: 44% 14% 29%
Wind Speed: 27.4km/h 0km/h 6.3km/h
Wind Gust: 32.2km/h - -
Wind- - West
Pressure: 1011.4 hPa 1005.3 hPa -
Precipitation: 0 mm    
Historical Graphs
 
 
Tabular Data for March 17, 2017
Time Temperature Dew Point Pressure Wind Wind Speed Wind Gust Humidity Rainfall Rate (Hourly) solar Conditions
00:35 24.6 °C 6.8 °C 1008.4 hPa NW 9.7 km/h 12.9 km/h 32% 0 mm 0.0 W/m2
00:45 24.4 °C 7.1 °C 1008.4 hPa NW 6.4 km/h 12.9 km/h 33% 0 mm 0.0 W/m2
00:50 24.3 °C 7 °C 1008 hPa NW 9.7 km/h 11.3 km/h 33% 0 mm 0.0 W/m2
00:55 24.2 °C 6.9 °C 1008 hPa NW 11.1 km/h 16.1 km/h 33% 0 mm 0.0 W/m2
01:05 23.8 °C 7 °C 1008 hPa NW 6.4 km/h 6.4 km/h 34% 0 mm 0.0 W/m2
01:11 23.4 °C 7.1 °C 1008 hPa NW 9.7 km/h 9.7 km/h 35% 0 mm 0.0 W/m2
01:16 23.2 °C 6.9 °C 1008 hPa NW 9.7 km/h 9.7 km/h 35% 0 mm 0.0 W/m2
01:21 23.1 °C 6.8 °C 1008 hPa NW 6.4 km/h 8 km/h 35% 0 mm 0.0 W/m2
01:31 22.9 °C 6.6 °C 1007.7 hPa NW 6.4 km/h 8 km/h 35% 0 mm 0.0 W/m2
01:36 22.6 °C 6.4 °C 1007.7 hPa NW 3.2 km/h 6.4 km/h 35% 0 mm 0.0 W/m2
01:51 21.9 °C 6.5 °C 1007.7 hPa Calm     37% 0 mm 0.0 W/m2
01:57 21.9 °C 6.5 °C 1007.7 hPa Calm     37% 0 mm 0.0 W/m2
02:02 21.8 °C 6.5 °C 1007.7 hPa Calm     37% 0 mm 0.0 W/m2
02:07 21.7 °C 6.4 °C 1007.7 hPa Calm     37% 0 mm 0.0 W/m2
02:12 21.6 °C 6.3 °C 1007.7 hPa Calm     37% 0 mm 0.0 W/m2
02:17 21.4 °C 6.5 °C 1007.7 hPa Calm     38% 0 mm 0.0 W/m2
02:22 21.3 °C 6.4 °C 1007.7 hPa Calm     38% 0 mm 0.0 W/m2
02:33 20.9 °C 6 °C 1007.7 hPa Calm     38% 0 mm 0.0 W/m2
02:49 20.4 °C 6 °C 1007.7 hPa Calm     39% 0 mm 0.0 W/m2
02:54 20.3 °C 5.9 °C 1007.7 hPa Calm     39% 0 mm 0.0 W/m2
02:59 20.2 °C 5.8 °C 1007.7 hPa Calm     39% 0 mm 0.0 W/m2
03:05 20.1 °C 6.1 °C 1007.7 hPa Calm     40% 0 mm 0.0 W/m2
03:15 20.2 °C 6.5 °C 1007.7 hPa Calm     41% 0 mm 0.0 W/m2
03:20 20.2 °C 6.5 °C 1007.7 hPa Calm     41% 0 mm 0.0 W/m2
03:25 20.2 °C 6.2 °C 1008 hPa Calm     40% 0 mm 0.0 W/m2
03:31 20.1 °C 6.1 °C 1008 hPa Calm     40% 0 mm 0.0 W/m2
03:36 19.9 °C 5.9 °C 1008 hPa Calm     40% 0 mm 0.0 W/m2
03:41 19.9 °C 6.3 °C 1008 hPa Calm     41% 0 mm 0.0 W/m2
03:44 19.8 °C 6.5 °C 1007.7 hPa Calm     42% 0 mm 0.0 W/m2
04:12 19.1 °C 6.2 °C 1007.7 hPa Calm     43% 0 mm 0.0 W/m2
04:28 18.9 °C 6.4 °C 1007.7 hPa Calm     44% 0 mm 0.0 W/m2
04:33 18.9 °C 6.4 °C 1007.7 hPa Calm     44% 0 mm 0.0 W/m2
04:43 19.1 °C 6.2 °C 1008 hPa Calm     43% 0 mm 0.0 W/m2
04:59 19.1 °C 6.6 °C 1008.4 hPa Calm     44% 0 mm 0.0 W/m2
05:02 19.1 °C 5.9 °C 1008.4 hPa Calm     42% 0 mm 0.0 W/m2
05:09 19.1 °C 5.9 °C 1008.4 hPa Calm     42% 0 mm 0.0 W/m2
05:45 19.3 °C 5.7 °C 1008.7 hPa Calm     41% 0 mm 0.0 W/m2
05:50 19.2 °C 5.6 °C 1008.7 hPa Calm     41% 0 mm 0.0 W/m2
05:55 19.1 °C 5.5 °C 1008.7 hPa Calm     41% 0 mm 0.0 W/m2
06:00 18.9 °C 5.7 °C 1008.7 hPa Calm     42% 0 mm 0.0 W/m2
06:06 18.9 °C 5.7 °C 1008.7 hPa Calm     42% 0 mm 0.0 W/m2
06:11 18.8 °C 5.6 °C 1009 hPa Calm     42% 0 mm 0.0 W/m2
06:21 18.7 °C 5.2 °C 1009 hPa Calm     41% 0 mm 0.0 W/m2
06:36 18.3 °C 5.2 °C 1009 hPa Calm     42% 0 mm 0.0 W/m2
06:41 18.3 °C 5.2 °C 1009 hPa Calm     42% 0 mm 0.0 W/m2
06:46 18.2 °C 5.1 °C 1009 hPa Calm     42% 0 mm 0.0 W/m2
06:51 18.2 °C 5.1 °C 1009 hPa Calm     42% 0 mm 5.0 W/m2
06:57 18.2 °C 5.1 °C 1009 hPa Calm     42% 0 mm 7.0 W/m2
07:05 18.1 °C 5 °C 1009 hPa Calm     42% 0 mm 16.0 W/m2
07:11 18.2 °C 5.1 °C 1009 hPa Calm     42% 0 mm 21.0 W/m2
07:26 18.7 °C 4.8 °C 1009 hPa Calm     40% 0 mm 46.0 W/m2
07:34 19.3 °C 4.6 °C 1009 hPa Calm     38% 0 mm 77.0 W/m2
08:45 25.6 °C 5.2 °C 1009.4 hPa Calm     27% 0 mm 343.0 W/m2
08:53 26.9 °C 5.2 °C 1009.4 hPa Calm     25% 0 mm 396.0 W/m2
09:10 27.9 °C 4.9 °C 1009.4 hPa Calm     23% 0 mm 425.0 W/m2
09:21 29.1 °C 3.9 °C 1009 hPa NW 1.4 km/h 11.3 km/h 20% 0 mm 471.0 W/m2
10:16 31.8 °C 2 °C 1009 hPa Calm     15% 0 mm 640.0 W/m2
10:22 31.9 °C 3 °C 1009 hPa North 6.4 km/h 16.1 km/h 16% 0 mm 654.0 W/m2
10:31 32.6 °C 3.5 °C 1009 hPa Calm     16% 0 mm 680.0 W/m2
10:36 32.7 °C 4.5 °C 1009 hPa Calm   12.9 km/h 17% 0 mm 696.0 W/m2
10:47 32.8 °C 4.5 °C 1009 hPa North 6.4 km/h 16.1 km/h 17% 0 mm 703.0 W/m2
10:52 32.8 °C 5.4 °C 1009 hPa Calm   11.3 km/h 18% 0 mm 710.0 W/m2
11:00 32.8 °C 6.1 °C 1009 hPa North 1.4 km/h 16.1 km/h 19% 0 mm 745.0 W/m2
11:07 33 °C 5.5 °C 1009 hPa North 11.1 km/h 20.9 km/h 18% 0 mm 752.0 W/m2
11:37 32.7 °C 6.8 °C 1009 hPa Calm   14.5 km/h 20% 0 mm 807.0 W/m2
11:47 33.1 °C 7.1 °C 1008.7 hPa Calm   24.1 km/h 20% 0 mm 821.0 W/m2
11:50 33.1 °C 7.1 °C 1008.7 hPa Calm   11.3 km/h 20% 0 mm 828.0 W/m2
11:57 33.1 °C 7.1 °C 1008.7 hPa Calm   11.3 km/h 20% 0 mm 828.0 W/m2
12:06 33.1 °C 6.4 °C 1008.7 hPa NNW 3.2 km/h 17.7 km/h 19% 0 mm 838.0 W/m2
12:10 33.5 °C 6.7 °C 1008.7 hPa NNW 6.4 km/h 12.9 km/h 19% 0 mm 847.0 W/m2
12:20 33.4 °C 7.4 °C 1008.7 hPa Calm   11.3 km/h 20% 0 mm 851.0 W/m2
12:31 33.5 °C 7.5 °C 1008.4 hPa NNW 7.9 km/h 12.9 km/h 20% 0 mm 854.0 W/m2
12:42 34.2 °C 8 °C 1008.4 hPa Calm   17.7 km/h 20% 0 mm 861.0 W/m2
12:56 34.7 °C 7.7 °C 1008 hPa NNW 7.9 km/h 8 km/h 19% 0 mm 865.0 W/m2
13:06 34.9 °C 7.9 °C 1008 hPa NNW 25.9 km/h 29 km/h 19% 0 mm 861.0 W/m2
13:11 35.4 °C 8.3 °C 1007.7 hPa Calm   27.4 km/h 19% 0 mm 863.0 W/m2
13:33 35.9 °C 8.7 °C 1007.7 hPa Calm   6.4 km/h 19% 0 mm 858.0 W/m2
13:41 35.8 °C 7.8 °C 1007.7 hPa WNW 11.1 km/h 22.5 km/h 18% 0 mm 844.0 W/m2
13:57 35.7 °C 8.5 °C 1007.3 hPa Calm   17.7 km/h 19% 0 mm 835.0 W/m2
14:01 36.1 °C 8.8 °C 1007.3 hPa NW 16.3 km/h 20.9 km/h 19% 0 mm 826.0 W/m2
14:16 36.6 °C 8.4 °C 1007 hPa NW 13 km/h 22.5 km/h 18% 0 mm 810.0 W/m2
14:27 36.6 °C 8.4 °C 1007 hPa Calm   8 km/h 18% 0 mm 802.0 W/m2
14:36 36.6 °C 8.4 °C 1007 hPa NW 16.3 km/h 19.3 km/h 18% 0 mm 782.0 W/m2
14:42 36.7 °C 8.5 °C 1006.7 hPa NW 1.4 km/h 17.7 km/h 18% 0 mm 768.0 W/m2
14:47 37 °C 7.9 °C 1006.7 hPa NW 24.1 km/h 24.1 km/h 17% 0 mm 763.0 W/m2
15:04 36.9 °C 7.8 °C 1006.3 hPa NW 19.5 km/h 25.7 km/h 17% 0 mm 745.0 W/m2
15:17 36.8 °C 5.9 °C 1006.3 hPa NW 17.7 km/h 22.5 km/h 15% 0 mm 710.0 W/m2
15:27 36.9 °C 6.9 °C 1006.3 hPa NW 9.7 km/h 19.3 km/h 16% 0 mm 708.0 W/m2
15:35 37.1 °C 6.2 °C 1006 hPa NW 1.4 km/h 20.9 km/h 15% 0 mm 715.0 W/m2
15:37 37.3 °C 7.3 °C 1006 hPa NW 17.7 km/h 22.5 km/h 16% 0 mm 689.0 W/m2
15:47 37.3 °C 7.3 °C 1006 hPa NW 6.4 km/h 14.5 km/h 16% 0 mm 673.0 W/m2
15:57 37.2 °C 6.2 °C 1006 hPa North 9.7 km/h 17.7 km/h 15% 0 mm 631.0 W/m2
16:06 37.4 °C 6.4 °C 1006 hPa NNW 11.1 km/h 19.3 km/h 15% 0 mm 603.0 W/m2
17:18 37.2 °C 5.2 °C 1005.3 hPa West 7.9 km/h 16.1 km/h 14% 0 mm 350.0 W/m2
17:23 37.1 °C 5.2 °C 1005.6 hPa West 7.9 km/h 17.7 km/h 14% 0 mm 237.0 W/m2
17:33 37.2 °C 5.2 °C 1005.6 hPa West 17.7 km/h 17.7 km/h 14% 0 mm 258.0 W/m2
17:50 35.8 °C 7.8 °C 1005.6 hPa SSW 25.9 km/h 32.2 km/h 18% 0 mm 295.0 W/m2
17:58 35.1 °C 8.8 °C 1005.6 hPa South 25.9 km/h 29 km/h 20% 0 mm 62.0 W/m2
18:06 34.3 °C 8.8 °C 1006.3 hPa SSW 25.9 km/h 30.6 km/h 21% 0 mm 65.0 W/m2
19:19 31.3 °C 10.1 °C 1007.3 hPa SSW 27.4 km/h 32.2 km/h 27% 0 mm 0.0 W/m2
19:36 31.1 °C 10.4 °C 1007.3 hPa SSW 16.3 km/h 27.4 km/h 28% 0 mm 0.0 W/m2
19:50 30.7 °C 10.6 °C 1007.7 hPa SSW 20.9 km/h 25.7 km/h 29% 0 mm 0.0 W/m2
20:00 30.6 °C 10.5 °C 1008 hPa SSW 20.9 km/h 25.7 km/h 29% 0 mm 0.0 W/m2
20:04 30.3 °C 10.3 °C 1008.4 hPa SSW 19.5 km/h 24.1 km/h 29% 0 mm 0.0 W/m2
20:25 30.2 °C 10.2 °C 1008.4 hPa SSW 19.5 km/h 22.5 km/h 29% 0 mm 0.0 W/m2
20:34 30 °C 10 °C 1008.7 hPa South 24.1 km/h 27.4 km/h 29% 0 mm 0.0 W/m2
20:45 29.7 °C 9.8 °C 1009 hPa South 27.4 km/h 27.4 km/h 29% 0 mm 0.0 W/m2
20:54 29.6 °C 9.7 °C 1009 hPa South 19.5 km/h 24.1 km/h 29% 0 mm 0.0 W/m2
21:04 29.5 °C 9.1 °C 1009 hPa SSE 11.1 km/h 19.3 km/h 28% 0 mm 0.0 W/m2
21:13 29.3 °C 9.4 °C 1009.4 hPa SSE 16.3 km/h 16.3 km/h 29% 0 mm 0.0 W/m2
23:43 26 °C 6.1 °C 1011.4 hPa SSW 13 km/h 14.5 km/h 28% 0 mm 0.0 W/m2
23:49 26.1 °C 6.2 °C 1011.1 hPa SSW 16.3 km/h 17.7 km/h 28% 0 mm 0.0 W/m2
23:54 26.1 °C 5.6 °C 1011.1 hPa SSW 13 km/h 17.7 km/h 27% 0 mm 0.0 W/m2
23:56 25.9 °C 6 °C 1011.4 hPa SSW 9.7 km/h 14.5 km/h 28% 0 mm 0.0 W/m2
Canyon Roadhouse, Fishriver Canyon, Namibia
Compliments of Weather Underground - 2.25 mb